createdAt,value
2018-07-23T00:06:30.801Z,2.90
2018-07-23T00:16:36.521Z,3.50
2018-07-23T00:26:41.986Z,2.80
2018-07-23T00:36:46.644Z,2.57
2018-07-23T00:46:51.440Z,3.97
2018-07-23T00:56:56.178Z,2.90
2018-07-23T01:07:01.140Z,2.90
2018-07-23T01:17:06.558Z,2.83
2018-07-23T01:27:11.164Z,2.57
2018-07-23T01:37:16.393Z,4.03
2018-07-23T01:47:21.056Z,3.00
2018-07-23T01:57:25.774Z,3.73
2018-07-23T02:07:30.484Z,3.10
2018-07-23T02:17:35.169Z,3.13
2018-07-23T02:27:39.867Z,3.00
2018-07-23T02:37:44.524Z,3.07
2018-07-23T02:47:49.303Z,3.00
2018-07-23T02:57:54.183Z,3.00
2018-07-23T03:07:58.881Z,3.03
2018-07-23T03:18:03.801Z,3.10
2018-07-23T03:28:08.607Z,3.00
2018-07-23T03:38:13.480Z,2.97
2018-07-23T03:48:18.291Z,3.50
2018-07-23T03:58:22.975Z,2.97
2018-07-23T04:08:27.737Z,3.20
2018-07-23T04:18:32.511Z,3.17
2018-07-23T04:28:37.232Z,3.30
2018-07-23T04:38:41.990Z,3.30
2018-07-23T04:48:46.896Z,3.37
2018-07-23T04:58:51.649Z,3.33
2018-07-23T05:08:56.531Z,3.73
2018-07-23T05:19:01.397Z,3.27
2018-07-23T05:29:06.191Z,3.70
2018-07-23T05:39:11.980Z,3.70
2018-07-23T05:49:16.989Z,3.60
2018-07-23T05:59:22.363Z,3.60
2018-07-23T06:09:28.103Z,3.83
2018-07-23T06:19:32.779Z,4.07
2018-07-23T06:29:37.522Z,4.23
2018-07-23T06:39:42.148Z,4.10
2018-07-23T06:49:46.880Z,4.23
2018-07-23T06:59:51.998Z,4.37
2018-07-23T07:09:57.573Z,4.90
2018-07-23T07:20:03.298Z,4.87
2018-07-23T07:30:09.201Z,5.20
2018-07-23T07:40:14.122Z,5.00
2018-07-23T08:01:30.533Z,5.37
2018-07-23T08:11:35.791Z,5.50
2018-07-23T08:21:40.540Z,5.80
2018-07-23T08:31:45.362Z,5.80
2018-07-23T08:41:50.082Z,6.10
2018-07-23T08:51:54.727Z,6.77
2018-07-23T09:01:59.380Z,6.40
2018-07-23T09:12:04.165Z,6.70
2018-07-23T09:22:08.928Z,6.60
2018-07-23T09:32:13.831Z,7.27
2018-07-23T09:42:18.578Z,7.97
2018-07-23T09:52:23.269Z,7.63
2018-07-23T10:02:27.820Z,7.87
2018-07-23T10:12:32.620Z,9.10
2018-07-23T10:22:37.513Z,9.60
2018-07-23T10:32:42.277Z,9.70
2018-07-23T10:42:47.172Z,10.07
2018-07-23T10:52:52.979Z,10.27
2018-07-23T11:02:57.763Z,10.90
2018-07-23T11:13:02.520Z,11.53
2018-07-23T11:23:07.596Z,10.67
2018-07-23T11:33:12.407Z,11.20
2018-07-23T11:43:17.795Z,10.43
2018-07-23T11:53:23.464Z,10.07
2018-07-23T12:03:28.127Z,10.57
2018-07-23T12:13:33.074Z,10.43
2018-07-23T12:23:37.771Z,10.67
2018-07-23T12:33:42.771Z,10.93
2018-07-23T12:43:47.353Z,10.27
2018-07-23T12:53:52.047Z,10.97
2018-07-23T13:03:56.650Z,10.67
2018-07-23T13:14:01.410Z,10.50
2018-07-23T13:24:06.340Z,10.47
2018-07-23T13:34:11.115Z,10.23
2018-07-23T13:44:15.959Z,10.73
2018-07-23T13:54:20.690Z,10.33
2018-07-23T14:04:25.066Z,11.10
2018-07-23T14:14:30.123Z,10.20
2018-07-23T14:24:35.007Z,11.10
2018-07-23T19:59:03.811Z,12.93
2018-07-23T20:09:12.146Z,12.03
2018-07-23T20:19:16.882Z,11.63
2018-07-23T20:29:21.364Z,11.03
2018-07-23T20:39:26.298Z,11.13
2018-07-23T20:49:31.234Z,11.00
2018-07-23T20:59:36.323Z,10.67
2018-07-23T21:09:41.312Z,10.73
